createdAt,value
2019-06-27T00:02:31.668Z,68.05
2019-06-27T00:05:02.595Z,67.30
2019-06-27T00:07:34.701Z,67.04
2019-06-27T00:10:04.627Z,68.89
2019-06-27T00:12:33.728Z,69.56
2019-06-27T00:15:04.586Z,69.56
2019-06-27T00:17:35.708Z,68.26
2019-06-27T00:20:04.957Z,67.01
2019-06-27T00:22:41.072Z,67.16
2019-06-27T00:25:07.671Z,66.39
2019-06-27T00:27:37.962Z,65.49
2019-06-27T00:30:08.630Z,65.85
2019-06-27T00:32:40.561Z,64.54
2019-06-27T00:35:11.326Z,64.08
2019-06-27T00:37:45.199Z,63.93
2019-06-27T00:40:18.402Z,65.02
2019-06-27T00:42:47.525Z,65.44
2019-06-27T00:45:21.397Z,64.67
2019-06-27T00:47:54.016Z,65.04
2019-06-27T00:50:23.287Z,65.38
2019-06-27T00:52:52.392Z,64.92
2019-06-27T00:55:21.542Z,64.45
2019-06-27T00:57:50.640Z,65.42
2019-06-27T01:00:21.355Z,64.65
2019-06-27T01:02:50.513Z,64.52
2019-06-27T01:05:19.657Z,63.86
2019-06-27T01:07:48.783Z,63.54
2019-06-27T01:10:18.801Z,63.88
2019-06-27T01:12:48.871Z,63.69
2019-06-27T01:15:18.171Z,64.12
2019-06-27T01:17:47.333Z,64.55
2019-06-27T01:20:18.229Z,64.20
2019-06-27T01:22:48.969Z,67.10
2019-06-27T01:25:19.101Z,66.64
2019-06-27T01:27:48.206Z,66.92
2019-06-27T01:30:20.092Z,66.93
2019-06-27T01:32:54.378Z,68.46
2019-06-27T01:35:23.518Z,67.35
2019-06-27T01:37:52.606Z,65.77
2019-06-27T01:40:21.779Z,66.31
2019-06-27T01:42:52.226Z,66.31
2019-06-27T01:45:36.991Z,66.78
2019-06-27T01:48:06.129Z,66.43
2019-06-27T01:50:37.045Z,66.67
2019-06-27T01:53:07.259Z,66.01
2019-06-27T01:55:39.022Z,65.77
2019-06-27T01:58:09.389Z,66.34
2019-06-27T02:00:40.163Z,68.63
2019-06-27T02:03:11.179Z,68.63
2019-06-27T02:05:42.081Z,67.91
2019-06-27T02:08:11.192Z,67.33
2019-06-27T02:10:41.694Z,67.33
2019-06-27T02:13:11.023Z,67.50
2019-06-27T02:15:43.296Z,66.27
2019-06-27T02:18:12.433Z,66.16
2019-06-27T02:20:41.544Z,66.52
2019-06-27T02:23:10.715Z,66.83
2019-06-27T02:25:39.900Z,66.44
2019-06-27T02:28:09.041Z,67.12
2019-06-27T02:30:50.695Z,66.67
2019-06-27T02:33:19.844Z,66.64
2019-06-27T02:35:50.326Z,66.64
2019-06-27T02:38:23.565Z,66.86
2019-06-27T02:40:58.738Z,66.76
2019-06-27T02:43:30.067Z,66.64
2019-06-27T02:45:59.249Z,66.64
2019-06-27T02:48:32.966Z,66.31
2019-06-27T02:51:02.195Z,66.31
2019-06-27T02:53:33.273Z,66.93
2019-06-27T02:56:02.380Z,66.90
2019-06-27T02:58:33.048Z,66.74
2019-06-27T03:01:02.438Z,66.73
2019-06-27T03:03:33.827Z,66.79
2019-06-27T03:06:04.866Z,66.68
2019-06-27T03:08:34.062Z,67.82
2019-06-27T03:11:07.106Z,67.82
2019-06-27T03:13:40.647Z,67.45
2019-06-27T03:16:10.285Z,67.12
2019-06-27T03:18:39.828Z,67.05
2019-06-27T03:21:08.986Z,67.11
2019-06-27T03:23:38.100Z,66.97
2019-06-27T03:26:07.232Z,67.38
2019-06-27T03:28:51.851Z,68.05
2019-06-27T03:31:09.303Z,68.32
2019-06-27T03:33:40.286Z,67.50
2019-06-27T03:36:09.428Z,67.50
2019-06-27T03:38:38.768Z,68.28
2019-06-27T03:41:08.159Z,68.87
2019-06-27T03:43:41.274Z,68.69
2019-06-27T03:46:10.762Z,68.21
2019-06-27T03:48:39.886Z,68.16
2019-06-27T03:51:12.480Z,67.45
2019-06-27T03:53:41.689Z,67.39
2019-06-27T03:56:13.181Z,67.49
2019-06-27T03:58:44.134Z,68.10
2019-06-27T04:01:14.450Z,68.30
2019-06-27T04:03:46.804Z,67.50
2019-06-27T04:06:16.000Z,67.67
2019-06-27T04:08:45.129Z,67.45
2019-06-27T04:11:17.114Z,67.62
2019-06-27T04:13:50.243Z,68.18
2019-06-27T04:16:21.332Z,68.75
2019-06-27T04:18:52.765Z,68.75
2019-06-27T04:21:25.348Z,69.44
2019-06-27T04:23:54.606Z,69.15
2019-06-27T04:26:25.008Z,68.93
2019-06-27T04:28:55.816Z,68.59
2019-06-27T04:31:26.842Z,67.53
2019-06-27T04:33:55.972Z,67.53
2019-06-27T04:36:29.096Z,67.64
2019-06-27T04:38:59.339Z,67.43
2019-06-27T04:41:30.124Z,66.79
2019-06-27T04:44:02.004Z,66.79
2019-06-27T04:46:31.343Z,66.19
2019-06-27T04:49:05.097Z,65.51
2019-06-27T04:51:34.572Z,65.27
2019-06-27T04:54:06.199Z,65.78
2019-06-27T04:56:38.006Z,64.27
2019-06-27T04:59:07.290Z,63.64
2019-06-27T05:01:39.149Z,63.81
2019-06-27T05:04:11.446Z,63.06
2019-06-27T05:06:40.623Z,62.78
2019-06-27T05:09:10.952Z,62.75
2019-06-27T05:11:40.538Z,62.36
2019-06-27T05:14:09.669Z,62.80
2019-06-27T05:16:38.762Z,62.44
2019-06-27T05:19:08.315Z,62.78
2019-06-27T05:21:45.787Z,62.43
2019-06-27T05:24:16.328Z,62.46
2019-06-27T05:26:45.432Z,61.97
2019-06-27T05:29:16.355Z,61.56
2019-06-27T05:31:52.801Z,61.96
2019-06-27T05:34:26.632Z,62.45
2019-06-27T05:36:58.670Z,61.86
2019-06-27T05:39:35.303Z,61.98
2019-06-27T05:42:04.836Z,62.57
2019-06-27T05:44:38.595Z,62.25
2019-06-27T05:47:10.796Z,62.65
2019-06-27T05:49:46.810Z,62.72
2019-06-27T05:52:16.349Z,62.63
2019-06-27T05:54:48.803Z,62.67
2019-06-27T05:57:19.184Z,62.65
2019-06-27T05:59:56.944Z,62.04
2019-06-27T06:02:27.305Z,61.72
2019-06-27T06:05:00.222Z,62.35
2019-06-27T06:07:31.045Z,61.76
2019-06-27T06:10:00.209Z,60.58
2019-06-27T06:12:29.313Z,60.47
2019-06-27T06:14:58.451Z,60.76
2019-06-27T06:17:29.957Z,60.84
2019-06-27T06:20:09.806Z,61.56
2019-06-27T06:22:45.680Z,62.07
2019-06-27T06:25:15.965Z,62.23
2019-06-27T06:27:47.972Z,62.81
2019-06-27T06:30:17.944Z,62.44
2019-06-27T06:32:47.049Z,62.10
2019-06-27T06:35:17.721Z,62.12
2019-06-27T06:37:46.916Z,61.57
2019-06-27T06:40:16.709Z,61.82
2019-06-27T06:42:48.791Z,62.53
2019-06-27T06:45:17.943Z,61.17
2019-06-27T06:47:47.965Z,61.25
2019-06-27T06:50:17.696Z,61.85
2019-06-27T06:52:47.058Z,61.99
2019-06-27T06:55:21.044Z,62.60
2019-06-27T06:57:51.739Z,62.37
2019-06-27T07:00:22.589Z,62.02
2019-06-27T07:02:53.873Z,61.92
2019-06-27T07:05:27.779Z,63.53
2019-06-27T07:07:59.178Z,63.28
2019-06-27T07:10:31.560Z,62.81
2019-06-27T07:13:05.428Z,62.76
2019-06-27T07:15:37.707Z,63.36
2019-06-27T07:18:07.600Z,63.05
2019-06-27T07:20:37.503Z,62.99
2019-06-27T07:23:11.783Z,62.71
2019-06-27T07:25:46.290Z,62.13
2019-06-27T07:28:15.440Z,60.84
2019-06-27T07:30:47.071Z,61.58
2019-06-27T07:33:16.564Z,61.81
2019-06-27T07:35:51.185Z,61.78
2019-06-27T07:38:21.564Z,61.21
2019-06-27T07:40:51.693Z,62.16
2019-06-27T07:43:20.810Z,63.08
2019-06-27T07:45:53.901Z,61.89
2019-06-27T07:48:23.177Z,61.97
2019-06-27T07:51:01.545Z,61.44
2019-06-27T07:53:30.806Z,62.74
2019-06-27T07:56:01.561Z,63.06
2019-06-27T07:58:30.758Z,63.70
2019-06-27T08:01:00.661Z,62.83
2019-06-27T08:03:29.858Z,62.57
2019-06-27T08:06:00.243Z,62.70
2019-06-27T08:08:33.670Z,63.64
2019-06-27T08:11:06.190Z,63.52
2019-06-27T08:13:36.450Z,63.37
2019-06-27T08:16:05.538Z,62.82
2019-06-27T08:18:34.721Z,62.22
2019-06-27T08:21:13.274Z,62.82
2019-06-27T08:23:44.340Z,62.03
2019-06-27T08:26:13.747Z,63.71
2019-06-27T08:28:45.858Z,63.49
2019-06-27T08:31:17.701Z,63.69
2019-06-27T08:33:47.165Z,63.37
2019-06-27T08:36:18.591Z,62.82
2019-06-27T08:38:48.055Z,62.30
2019-06-27T08:41:17.196Z,61.63
2019-06-27T08:43:49.029Z,62.03
2019-06-27T08:46:20.676Z,61.78
2019-06-27T08:48:55.329Z,62.37
2019-06-27T08:51:24.460Z,61.92
2019-06-27T08:53:56.670Z,61.38
2019-06-27T08:56:37.049Z,61.36
2019-06-27T08:59:11.239Z,61.76
2019-06-27T09:02:07.844Z,60.43
2019-06-27T09:04:27.558Z,60.40
2019-06-27T09:06:58.743Z,60.86
2019-06-27T09:09:31.876Z,61.11
2019-06-27T09:12:04.355Z,60.24
2019-06-27T09:14:33.542Z,60.16
2019-06-27T09:17:04.542Z,60.15
2019-06-27T09:19:36.588Z,59.92
2019-06-27T09:22:05.758Z,59.60
2019-06-27T09:24:38.787Z,60.14
2019-06-27T09:27:08.101Z,60.52
2019-06-27T09:29:37.367Z,59.45
2019-06-27T09:32:06.952Z,58.68
2019-06-27T09:34:36.097Z,58.94
2019-06-27T09:37:10.097Z,59.47
2019-06-27T09:39:43.165Z,59.39
2019-06-27T09:42:12.404Z,58.29
2019-06-27T09:44:42.353Z,59.36
2019-06-27T09:47:13.670Z,59.88
2019-06-27T09:49:45.305Z,59.30
2019-06-27T09:52:14.517Z,57.58
2019-06-27T09:54:43.777Z,58.67
2019-06-27T09:57:12.885Z,59.07
2019-06-27T09:59:43.176Z,58.07
2019-06-27T10:02:17.092Z,56.85
2019-06-27T10:04:46.215Z,56.06
2019-06-27T10:07:15.648Z,57.07
2019-06-27T10:09:53.899Z,57.93
2019-06-27T10:12:23.030Z,56.86
2019-06-27T10:14:52.505Z,56.87
2019-06-27T10:17:24.026Z,56.37
2019-06-27T10:19:54.800Z,56.02
2019-06-27T10:22:28.763Z,56.08
2019-06-27T10:24:58.645Z,56.56
2019-06-27T10:27:34.146Z,56.12
2019-06-27T10:30:04.698Z,56.23
2019-06-27T10:32:39.538Z,56.30
2019-06-27T10:35:10.012Z,54.35
2019-06-27T10:37:42.090Z,53.92
2019-06-27T10:40:18.241Z,53.38
2019-06-27T10:42:49.500Z,53.03
2019-06-27T10:45:25.309Z,52.63
2019-06-27T10:47:56.910Z,52.16
2019-06-27T10:50:29.156Z,51.08
2019-06-27T10:52:58.283Z,50.12
2019-06-27T10:55:28.647Z,48.95
2019-06-27T10:57:58.115Z,49.49
2019-06-27T11:00:28.513Z,47.61
2019-06-27T11:03:14.382Z,47.45
2019-06-27T11:05:32.823Z,47.36
2019-06-27T11:08:05.103Z,46.84
2019-06-27T11:10:37.370Z,47.87
2019-06-27T11:13:06.522Z,49.64
2019-06-27T11:15:35.614Z,49.13
2019-06-27T11:18:05.066Z,48.31
2019-06-27T11:20:35.083Z,46.08
2019-06-27T11:23:05.869Z,46.94
2019-06-27T11:25:35.032Z,45.26
2019-06-27T11:28:05.893Z,46.79
2019-06-27T11:30:39.892Z,46.39
2019-06-27T11:33:31.339Z,46.91
2019-06-27T11:35:47.923Z,46.92
2019-06-27T11:38:17.191Z,46.47
2019-06-27T11:40:48.731Z,46.74
2019-06-27T11:43:24.135Z,48.00
2019-06-27T11:45:53.347Z,46.33
2019-06-27T11:48:23.400Z,45.56
2019-06-27T11:50:54.383Z,46.45
2019-06-27T11:53:23.802Z,46.27
2019-06-27T11:55:58.444Z,48.05
2019-06-27T11:58:30.086Z,47.48
2019-06-27T12:01:00.236Z,48.13
2019-06-27T12:03:29.915Z,47.23
2019-06-27T12:05:59.207Z,46.57
2019-06-27T12:08:29.421Z,47.79
2019-06-27T12:10:58.648Z,46.55
2019-06-27T12:13:32.863Z,45.87
2019-06-27T12:16:06.999Z,45.84
2019-06-27T12:18:42.976Z,45.76
2019-06-27T12:21:14.941Z,47.02
2019-06-27T12:23:50.282Z,44.79
2019-06-27T12:26:19.685Z,44.95
2019-06-27T12:28:49.370Z,45.60
2019-06-27T12:31:21.014Z,45.47
2019-06-27T12:34:05.744Z,44.53
2019-06-27T12:36:22.465Z,45.79
2019-06-27T12:38:54.714Z,44.92
2019-06-27T12:41:25.890Z,45.23
2019-06-27T12:43:59.790Z,44.86
2019-06-27T12:46:30.033Z,44.15
2019-06-27T12:48:59.698Z,45.74
2019-06-27T12:51:36.260Z,46.47
2019-06-27T12:54:08.526Z,46.88
2019-06-27T12:56:41.164Z,46.70
2019-06-27T12:59:12.145Z,46.84
2019-06-27T13:01:41.354Z,46.28
2019-06-27T13:04:22.977Z,45.57
2019-06-27T13:06:54.433Z,44.29
2019-06-27T13:09:24.551Z,44.65
2019-06-27T13:11:55.704Z,43.72
2019-06-27T13:14:24.822Z,43.80
2019-06-27T13:16:58.157Z,44.76
2019-06-27T13:19:30.956Z,44.51
2019-06-27T13:22:01.681Z,43.65
2019-06-27T13:24:31.990Z,45.39
2019-06-27T13:27:04.106Z,44.57
2019-06-27T13:29:33.811Z,46.10
2019-06-27T13:32:03.038Z,44.78
2019-06-27T13:34:40.249Z,45.25
2019-06-27T13:37:03.164Z,47.42
2019-06-27T13:39:33.279Z,47.11
2019-06-27T13:42:03.554Z,47.37
2019-06-27T13:44:36.996Z,47.06
2019-06-27T13:47:09.020Z,47.50
2019-06-27T13:49:38.519Z,47.96
2019-06-27T13:52:07.988Z,46.70
2019-06-27T13:54:39.278Z,46.34
2019-06-27T13:57:09.068Z,46.74
2019-06-27T13:59:40.737Z,46.82
2019-06-27T14:02:11.020Z,47.81
2019-06-27T14:04:52.939Z,47.52
2019-06-27T14:07:10.921Z,46.58
2019-06-27T14:09:51.422Z,46.76
2019-06-27T14:12:11.718Z,46.50
2019-06-27T14:14:58.779Z,47.33
2019-06-27T14:17:15.667Z,47.49
2019-06-27T14:19:50.572Z,47.95
2019-06-27T14:22:32.942Z,45.72
2019-06-27T14:24:53.576Z,45.43
2019-06-27T14:27:26.537Z,45.31
2019-06-27T14:29:56.759Z,46.00
2019-06-27T14:32:33.115Z,46.05
2019-06-27T14:35:14.625Z,45.20
2019-06-27T14:37:33.806Z,45.59
2019-06-27T14:40:07.362Z,44.75
2019-06-27T14:42:37.073Z,46.34
2019-06-27T14:45:08.877Z,45.95
2019-06-27T14:47:39.838Z,45.85
2019-06-27T14:50:10.919Z,45.07
2019-06-27T14:52:40.039Z,44.80
2019-06-27T14:55:15.894Z,43.10
2019-06-27T14:57:45.358Z,44.59
2019-06-27T15:00:21.886Z,43.79
2019-06-27T15:02:53.442Z,44.45
2019-06-27T15:05:32.610Z,44.61
2019-06-27T15:07:55.864Z,44.07
2019-06-27T15:10:28.774Z,45.20
2019-06-27T15:13:03.820Z,45.20
2019-06-27T15:15:37.883Z,44.30
2019-06-27T15:18:07.768Z,44.72
2019-06-27T15:20:37.382Z,44.89
2019-06-27T15:23:11.102Z,45.12
2019-06-27T15:25:43.259Z,46.02
2019-06-27T15:28:12.876Z,46.78
2019-06-27T15:30:43.739Z,46.74
2019-06-27T15:33:17.303Z,46.11
2019-06-27T15:35:52.364Z,46.47
2019-06-27T15:38:24.581Z,45.73
2019-06-27T15:40:55.417Z,45.10
2019-06-27T15:43:27.150Z,45.82
2019-06-27T15:45:56.285Z,45.62
2019-06-27T15:48:25.755Z,45.75
2019-06-27T15:50:56.799Z,45.85
2019-06-27T15:53:25.901Z,45.82
2019-06-27T15:55:55.272Z,45.39
2019-06-27T15:58:28.324Z,43.82
2019-06-27T16:01:06.558Z,45.38
2019-06-27T16:03:35.789Z,45.30
2019-06-27T16:06:10.251Z,45.69
2019-06-27T16:08:36.782Z,45.18
2019-06-27T16:11:05.914Z,43.45
2019-06-27T16:13:35.220Z,43.91
2019-06-27T16:16:05.822Z,43.64
2019-06-27T16:18:48.982Z,44.43
2019-06-27T16:21:20.921Z,44.30
2019-06-27T16:23:52.942Z,43.43
2019-06-27T16:26:25.448Z,43.73
2019-06-27T16:28:55.194Z,44.11
2019-06-27T16:31:28.440Z,45.23
2019-06-27T16:33:57.545Z,44.59
2019-06-27T16:36:26.691Z,44.51
2019-06-27T16:38:55.823Z,44.75
2019-06-27T16:41:26.185Z,44.28
2019-06-27T16:44:03.724Z,44.89
2019-06-27T16:46:34.078Z,44.64
2019-06-27T16:49:04.928Z,42.90
2019-06-27T16:51:34.025Z,43.54
2019-06-27T16:54:04.927Z,43.24
2019-06-27T16:56:34.063Z,43.50
2019-06-27T16:59:05.052Z,43.73
2019-06-27T17:01:34.189Z,44.64
2019-06-27T17:04:05.623Z,43.41
2019-06-27T17:06:41.980Z,42.76
2019-06-27T17:09:09.217Z,43.34
2019-06-27T17:11:38.438Z,43.05
2019-06-27T17:14:07.526Z,43.24
2019-06-27T17:16:36.701Z,43.30
2019-06-27T17:19:08.664Z,43.31
2019-06-27T17:21:39.056Z,43.82
2019-06-27T17:24:13.419Z,44.13
2019-06-27T17:26:47.027Z,43.00
2019-06-27T17:29:18.566Z,42.54
2019-06-27T17:31:47.890Z,41.96
2019-06-27T17:34:16.997Z,42.20
2019-06-27T17:36:56.974Z,42.35
2019-06-27T17:39:18.009Z,42.63
2019-06-27T17:41:47.182Z,42.41
2019-06-27T17:44:19.985Z,42.53
2019-06-27T17:46:47.482Z,42.78
2019-06-27T17:49:23.049Z,42.75
2019-06-27T17:52:00.137Z,42.73
2019-06-27T17:54:38.156Z,42.05
2019-06-27T17:57:10.240Z,42.17
2019-06-27T17:59:39.465Z,42.40
2019-06-27T18:02:10.563Z,42.61
2019-06-27T18:04:39.672Z,42.96
2019-06-27T18:07:14.077Z,43.17
2019-06-27T18:09:42.671Z,43.66
2019-06-27T18:12:11.904Z,43.82
2019-06-27T18:14:42.819Z,43.66
2019-06-27T18:17:14.751Z,43.28
2019-06-27T18:19:48.770Z,42.59
2019-06-27T18:22:25.485Z,41.65
2019-06-27T18:25:03.810Z,41.79
2019-06-27T18:27:35.262Z,41.83
2019-06-27T18:30:04.381Z,41.80
2019-06-27T18:32:33.798Z,40.72
2019-06-27T18:35:03.686Z,40.75
2019-06-27T18:37:35.223Z,40.45
2019-06-27T18:40:08.897Z,40.13
2019-06-27T18:42:41.395Z,39.79
2019-06-27T18:45:17.560Z,40.19
2019-06-27T18:47:46.789Z,40.14
2019-06-27T18:50:16.784Z,40.11
2019-06-27T18:52:47.235Z,39.75
2019-06-27T18:55:20.825Z,39.06
2019-06-27T18:57:49.993Z,38.52
2019-06-27T19:00:21.846Z,37.86
2019-06-27T19:02:51.169Z,37.57
2019-06-27T19:05:21.762Z,37.60
2019-06-27T19:07:52.914Z,36.13
2019-06-27T19:10:31.253Z,37.12
2019-06-27T19:13:00.446Z,37.05
2019-06-27T19:15:30.947Z,36.81
2019-06-27T19:18:04.407Z,36.55
2019-06-27T19:20:42.331Z,36.34
2019-06-27T19:23:39.172Z,36.18
2019-06-27T19:26:08.441Z,36.18
2019-06-27T19:28:38.621Z,36.14
2019-06-27T19:31:10.787Z,36.14
2019-06-27T19:33:40.220Z,35.80
2019-06-27T19:36:12.201Z,35.88
2019-06-27T19:38:47.726Z,35.60
2019-06-27T19:41:16.856Z,35.71
2019-06-27T19:43:46.183Z,35.33
2019-06-27T19:46:15.283Z,36.18
2019-06-27T19:48:45.738Z,35.49
2019-06-27T19:51:16.717Z,35.42
2019-06-27T19:53:47.450Z,35.54
2019-06-27T19:56:17.446Z,36.29
2019-06-27T19:58:46.580Z,36.29
2019-06-27T20:01:15.744Z,35.85
2019-06-27T20:03:45.165Z,35.89
2019-06-27T20:06:17.205Z,36.51
2019-06-27T20:08:48.763Z,36.27
2019-06-27T20:11:17.902Z,36.75
2019-06-27T20:13:47.111Z,36.71
2019-06-27T20:16:16.458Z,36.50
2019-06-27T20:18:45.694Z,36.50
2019-06-27T20:21:16.690Z,36.36
2019-06-27T20:23:46.615Z,36.22
2019-06-27T20:26:18.680Z,36.26
2019-06-27T20:28:51.286Z,35.91
2019-06-27T20:31:20.950Z,35.91
2019-06-27T20:33:50.284Z,35.99
2019-06-27T20:36:20.411Z,35.71
2019-06-27T20:38:49.565Z,35.49
2019-06-27T20:41:18.990Z,35.08
2019-06-27T20:43:53.093Z,35.52
2019-06-27T20:46:22.568Z,35.40
2019-06-27T20:48:54.118Z,35.36
2019-06-27T20:51:30.348Z,35.54
2019-06-27T20:54:03.528Z,35.45
2019-06-27T20:56:32.947Z,35.42
2019-06-27T20:59:02.067Z,35.40
2019-06-27T21:01:31.899Z,35.56
2019-06-27T21:04:01.133Z,35.39
2019-06-27T21:06:33.150Z,35.63
2019-06-27T21:09:02.257Z,35.78
2019-06-27T21:11:31.354Z,35.78
2019-06-27T21:14:00.469Z,36.04
2019-06-27T21:16:29.690Z,36.34
2019-06-27T21:19:01.654Z,36.24
2019-06-27T21:21:30.955Z,35.86
2019-06-27T21:24:01.807Z,36.03
2019-06-27T21:26:32.556Z,35.96
2019-06-27T21:29:01.666Z,35.54
2019-06-27T21:31:30.768Z,34.98
2019-06-27T21:34:02.694Z,35.04
2019-06-27T21:36:31.876Z,35.20
2019-06-27T21:39:07.570Z,35.27
2019-06-27T21:41:35.465Z,35.54
2019-06-27T21:44:06.900Z,35.77
2019-06-27T21:46:37.160Z,35.71
2019-06-27T21:49:06.288Z,35.49
2019-06-27T21:51:35.710Z,35.27
2019-06-27T21:54:04.822Z,34.84
2019-06-27T21:56:36.427Z,34.51
2019-06-27T21:59:05.944Z,34.60
2019-06-27T22:01:35.728Z,34.45
2019-06-27T22:04:05.059Z,34.00
2019-06-27T22:06:36.654Z,34.48
2019-06-27T22:09:24.142Z,34.61
2019-06-27T22:11:44.065Z,34.38
2019-06-27T22:14:14.084Z,34.68
2019-06-27T22:16:45.067Z,35.26
2019-06-27T22:19:16.105Z,36.71
2019-06-27T22:21:46.063Z,37.63
2019-06-27T22:24:16.686Z,35.37
2019-06-27T22:26:46.162Z,34.86
2019-06-27T22:29:18.633Z,36.04
2019-06-27T22:31:51.879Z,35.13
2019-06-27T22:34:25.268Z,35.23
2019-06-27T22:37:03.480Z,35.25
2019-06-27T22:39:53.383Z,36.96
2019-06-27T22:42:41.466Z,36.17
2019-06-27T22:45:28.451Z,37.40
2019-06-27T22:48:12.603Z,37.10
2019-06-27T22:51:12.772Z,37.26
2019-06-27T22:53:56.092Z,35.77
2019-06-27T22:56:28.273Z,36.70
2019-06-27T22:58:59.231Z,35.65
2019-06-27T23:01:29.086Z,35.99
2019-06-27T23:03:59.928Z,35.87
2019-06-27T23:06:30.791Z,36.42
2019-06-27T23:09:04.077Z,36.02
2019-06-27T23:11:36.471Z,36.20
2019-06-27T23:14:10.965Z,36.51
2019-06-27T23:16:44.680Z,36.28
2019-06-27T23:19:14.904Z,36.57
2019-06-27T23:21:46.527Z,36.84
2019-06-27T23:24:16.957Z,37.83
2019-06-27T23:26:46.103Z,37.92
2019-06-27T23:29:18.717Z,37.92
2019-06-27T23:31:51.769Z,37.27
2019-06-27T23:34:20.962Z,37.65
2019-06-27T23:36:51.138Z,39.12
2019-06-27T23:39:21.079Z,38.05
2019-06-27T23:41:51.359Z,38.40
2019-06-27T23:44:20.535Z,38.81
2019-06-27T23:46:53.370Z,38.81
2019-06-27T23:49:26.157Z,39.27
2019-06-27T23:51:58.313Z,39.99
2019-06-27T23:54:28.721Z,39.26
2019-06-27T23:56:57.812Z,40.00
2019-06-27T23:59:28.324Z,39.34
